Aviation Digital Data Service (ADDS)

Output produced by METARs form (2039 UTC 17 November 2019)
found at http://www.aviationweather.gov/metar/data/
 
METAR text: RJFY 161648Z 35001KT 9999 NSC 07/05 Q1022 RMK A3021
Conditions at: RJFY (KANOYA (JMSDF) , JP) observed 1648 UTC 16 November 2019
Temperature: 7.0°C (45°F)
Dewpoint: 5.0°C (41°F) [RH = 87%]
Pressure (altimeter): 30.18 inches Hg (1022.0 mb)
Winds: from the N (350 degrees) at 1 MPH (1 knots; 0.5 m/s)
Visibility: 6 or more miles (10+ km)
Ceiling: at least 12,000 feet AGL
Clouds: sky clear below 12,000 feet AGL
Weather: no significant weather observed at this time

METAR text: RJFY 161334Z 00000KT 9999 VA NSC 10/07 Q1022 RMK A3020 VOLCANIC ASH OHD MOV SE
Conditions at: RJFY (KANOYA (JMSDF) , JP) observed 1334 UTC 16 November 2019
Temperature: 10.0°C (50°F)
Dewpoint: 7.0°C (45°F) [RH = 82%]
Pressure (altimeter): 30.18 inches Hg (1022.0 mb)
Winds: calm
Visibility: 6 or more miles (10+ km)
Ceiling: at least 12,000 feet AGL
Clouds: sky clear below 12,000 feet AGL
Weather: VA  (volcanic ash)

METAR text: RJFY 161051Z VRB01KT 9999 FEW030 10/06 Q1021 RMK 1CU030 A3018
Conditions at: RJFY (KANOYA (JMSDF) , JP) observed 1051 UTC 16 November 2019
Temperature: 10.0°C (50°F)
Dewpoint: 6.0°C (43°F) [RH = 76%]
Pressure (altimeter): 30.15 inches Hg (1021.0 mb)
Winds: variable direction winds at 1 MPH (1 knots; 0.5 m/s)
Visibility: 6 or more miles (10+ km)
Ceiling: at least 12,000 feet AGL
Clouds: few clouds at 3000 feet AGL
Weather: no significant weather observed at this time